createdAt,value
2023-01-25T00:00:31.211Z,2.30
2023-01-25T00:02:58.888Z,2.60
2023-01-25T00:05:26.164Z,2.50
2023-01-25T00:07:53.510Z,2.50
2023-01-25T00:10:24.139Z,2.50
2023-01-25T00:12:51.415Z,2.30
2023-01-25T00:15:18.708Z,2.50
2023-01-25T00:17:46.146Z,2.50
2023-01-25T00:20:13.422Z,2.60
2023-01-25T00:22:41.135Z,2.40
2023-01-25T00:25:09.001Z,2.40
2023-01-25T00:27:36.492Z,2.30
2023-01-25T00:30:04.472Z,2.30
2023-01-25T00:33:02.532Z,2.30
2023-01-25T00:35:32.677Z,2.20
2023-01-25T00:38:02.630Z,2.20
2023-01-25T00:40:30.073Z,2.10
2023-01-25T00:43:00.787Z,2.00
2023-01-25T00:45:28.166Z,1.80
2023-01-25T00:47:56.411Z,2.00
2023-01-25T00:50:24.000Z,2.00
2023-01-25T00:52:51.259Z,2.00
2023-01-25T00:55:18.769Z,2.00
2023-01-25T00:57:48.990Z,2.00
2023-01-25T01:00:16.883Z,2.00
2023-01-25T01:02:44.210Z,2.00
2023-01-25T01:05:11.905Z,2.10
2023-01-25T01:07:39.832Z,2.30
2023-01-25T01:10:07.731Z,2.00
2023-01-25T01:12:35.020Z,2.00
2023-01-25T01:15:02.398Z,1.80
2023-01-25T01:17:29.670Z,1.90
2023-01-25T01:19:56.943Z,1.90
2023-01-25T01:22:24.678Z,2.00
2023-01-25T01:27:19.645Z,2.00
2023-01-25T01:29:47.036Z,2.00
2023-01-25T01:32:14.406Z,2.00
2023-01-25T01:37:09.482Z,2.00
2023-01-25T01:42:04.606Z,2.10
2023-01-25T01:44:46.251Z,2.20
2023-01-25T01:47:45.849Z,2.80
2023-01-25T01:50:22.628Z,2.20
2023-01-25T01:52:51.960Z,2.00
2023-01-25T01:55:24.087Z,2.00
2023-01-25T01:57:58.800Z,2.00
2023-01-25T02:00:31.657Z,4.90
2023-01-25T02:03:01.694Z,1.70
2023-01-25T02:05:51.212Z,1.90
2023-01-25T02:08:19.762Z,1.90
2023-01-25T02:10:48.264Z,2.60
2023-01-25T02:13:16.599Z,2.00
2023-01-25T02:15:52.423Z,1.90
2023-01-25T02:20:50.747Z,2.10
2023-01-25T02:23:43.291Z,2.20
2023-01-25T02:26:11.119Z,2.20
2023-01-25T02:28:53.065Z,2.10
2023-01-25T02:31:24.657Z,2.30
2023-01-25T02:33:52.979Z,2.30
2023-01-25T02:36:24.657Z,2.40
2023-01-25T02:38:59.433Z,2.40
2023-01-25T02:41:41.082Z,2.10
2023-01-25T02:44:20.008Z,2.30
2023-01-25T02:46:47.944Z,2.50
2023-01-25T02:49:16.221Z,2.50
2023-01-25T02:51:46.890Z,2.50
2023-01-25T02:54:15.587Z,2.50
2023-01-25T02:56:43.240Z,2.70
2023-01-25T02:59:13.406Z,3.20
2023-01-25T03:01:43.931Z,2.40
2023-01-25T03:04:12.187Z,2.60
2023-01-25T03:06:40.095Z,2.60
2023-01-25T03:09:10.211Z,2.60
2023-01-25T03:11:39.795Z,2.70
2023-01-25T03:14:07.215Z,2.70
2023-01-25T03:16:34.582Z,2.80
2023-01-25T03:19:02.853Z,2.80
2023-01-25T03:21:30.240Z,2.90
2023-01-25T03:24:01.332Z,2.90
2023-01-25T03:26:58.785Z,2.90
2023-01-25T03:29:37.945Z,2.90
2023-01-25T03:32:11.415Z,2.70
2023-01-25T03:34:38.819Z,2.80
2023-01-25T03:37:06.353Z,2.90
2023-01-25T03:39:35.496Z,2.90
2023-01-25T03:42:02.843Z,2.70
2023-01-25T03:44:31.668Z,2.90
2023-01-25T03:46:59.470Z,2.90
2023-01-25T03:49:27.969Z,2.90
2023-01-25T03:51:55.418Z,2.90
2023-01-25T03:54:28.993Z,3.00
2023-01-25T03:56:56.435Z,2.90
2023-01-25T03:59:26.330Z,3.00
2023-01-25T04:01:55.792Z,3.10
2023-01-25T04:04:23.573Z,3.00
2023-01-25T04:06:51.384Z,3.00
2023-01-25T04:09:19.023Z,3.00
2023-01-25T04:11:51.888Z,3.00
2023-01-25T04:14:31.769Z,2.90
2023-01-25T04:17:08.285Z,2.90
2023-01-25T04:19:59.722Z,2.90
2023-01-25T04:22:34.298Z,2.90
2023-01-25T04:25:03.367Z,2.80
2023-01-25T04:27:30.814Z,2.90
2023-01-25T04:30:04.970Z,2.90
2023-01-25T04:32:36.757Z,2.90
2023-01-25T04:35:09.436Z,2.90
2023-01-25T04:37:37.031Z,2.90
2023-01-25T04:40:05.669Z,2.90
2023-01-25T04:42:38.809Z,3.00
2023-01-25T04:45:07.209Z,2.70
2023-01-25T04:47:35.842Z,2.90
2023-01-25T04:50:04.274Z,2.90
2023-01-25T04:52:33.125Z,2.90
2023-01-25T04:55:01.298Z,2.90
2023-01-25T04:57:32.151Z,2.70
2023-01-25T05:02:30.103Z,2.90
2023-01-25T05:04:57.529Z,2.90
2023-01-25T05:07:24.955Z,2.90
2023-01-25T05:09:53.729Z,3.00
2023-01-25T05:12:24.086Z,3.80
2023-01-25T05:15:02.259Z,3.30
2023-01-25T05:17:29.962Z,3.30
2023-01-25T05:19:57.380Z,2.90
2023-01-25T05:22:25.691Z,3.00
2023-01-25T05:24:54.398Z,2.90
2023-01-25T05:30:10.150Z,2.80
2023-01-25T05:32:57.567Z,2.80
2023-01-25T05:35:25.359Z,2.80
2023-01-25T05:37:59.356Z,2.90
2023-01-25T05:40:27.842Z,2.80
2023-01-25T05:42:59.953Z,2.80
2023-01-25T05:45:30.188Z,2.70
2023-01-25T05:47:58.791Z,2.70
2023-01-25T05:50:27.149Z,2.60
2023-01-25T05:53:14.694Z,2.70
2023-01-25T05:55:42.248Z,2.70
2023-01-25T05:58:14.017Z,2.70
2023-01-25T06:00:42.074Z,2.50
2023-01-25T06:03:21.811Z,2.50
2023-01-25T06:05:58.783Z,2.60
2023-01-25T06:08:26.599Z,2.60
2023-01-25T06:10:55.088Z,3.30
2023-01-25T06:13:24.856Z,2.60
2023-01-25T06:15:57.371Z,2.70
2023-01-25T06:18:43.972Z,2.70
2023-01-25T06:21:29.935Z,2.60
2023-01-25T06:23:57.281Z,2.70
2023-01-25T06:26:24.551Z,2.60
2023-01-25T06:28:55.140Z,2.90
2023-01-25T06:31:23.009Z,2.60
2023-01-25T06:33:52.154Z,2.60
2023-01-25T06:36:22.728Z,2.60
2023-01-25T06:38:51.385Z,2.50
2023-01-25T06:41:19.588Z,2.60
2023-01-25T06:43:49.967Z,2.70
2023-01-25T06:46:17.519Z,2.60
2023-01-25T06:48:45.030Z,3.10
2023-01-25T06:51:14.861Z,2.60
2023-01-25T06:53:45.862Z,2.50
2023-01-25T06:56:21.790Z,2.40
2023-01-25T06:58:50.579Z,2.40
2023-01-25T07:01:21.004Z,2.40
2023-01-25T07:03:53.505Z,2.40
2023-01-25T07:06:21.647Z,2.40
2023-01-25T07:08:49.344Z,2.40
2023-01-25T07:11:19.020Z,2.40
2023-01-25T07:13:47.879Z,2.30
2023-01-25T07:16:18.977Z,2.40
2023-01-25T07:18:46.558Z,2.30
2023-01-25T07:21:16.648Z,2.40
2023-01-25T07:23:44.885Z,2.30
2023-01-25T07:26:22.696Z,2.30
2023-01-25T07:28:50.771Z,2.50
2023-01-25T07:31:19.386Z,2.20
2023-01-25T07:33:54.240Z,2.30
2023-01-25T07:36:22.616Z,2.10
2023-01-25T07:38:53.634Z,2.20
2023-01-25T07:41:26.547Z,2.20
2023-01-25T07:43:54.452Z,2.30
2023-01-25T07:46:33.363Z,2.30
2023-01-25T07:49:00.769Z,2.30
2023-01-25T07:51:30.151Z,2.20
2023-01-25T07:53:59.904Z,2.30
2023-01-25T07:56:30.334Z,2.00
2023-01-25T07:58:59.684Z,4.10
2023-01-25T08:01:29.038Z,2.20
2023-01-25T08:03:57.305Z,2.10
2023-01-25T08:06:35.906Z,2.10
2023-01-25T08:09:09.708Z,2.10
2023-01-25T08:11:37.159Z,2.10
2023-01-25T08:14:04.580Z,2.00
2023-01-25T08:16:32.546Z,2.30
2023-01-25T08:19:02.029Z,2.00
2023-01-25T08:21:32.217Z,2.20
2023-01-25T08:24:00.899Z,2.10
2023-01-25T08:26:28.992Z,2.10
2023-01-25T08:28:57.182Z,2.50
2023-01-25T08:31:27.532Z,2.70
2023-01-25T08:33:58.624Z,2.10
2023-01-25T08:36:28.203Z,2.40
2023-01-25T08:38:58.028Z,2.00
2023-01-25T08:41:26.806Z,2.10
2023-01-25T08:43:55.484Z,1.90
2023-01-25T08:46:24.610Z,2.00
2023-01-25T08:48:56.578Z,2.80
2023-01-25T08:51:24.723Z,1.90
2023-01-25T08:53:52.045Z,2.00
2023-01-25T08:56:19.520Z,2.00
2023-01-25T08:58:48.781Z,2.00
2023-01-25T09:01:19.116Z,2.00
2023-01-25T09:03:50.233Z,1.90
2023-01-25T09:06:19.670Z,2.10
2023-01-25T09:08:47.627Z,1.90
2023-01-25T09:11:19.491Z,2.00
2023-01-25T09:13:48.781Z,2.20
2023-01-25T09:16:28.152Z,2.00
2023-01-25T09:18:58.041Z,2.00
2023-01-25T09:21:25.631Z,2.00
2023-01-25T09:24:09.692Z,1.90
2023-01-25T09:26:41.774Z,1.80
2023-01-25T09:29:11.540Z,2.20
2023-01-25T09:31:45.802Z,1.70
2023-01-25T09:34:16.104Z,1.70
2023-01-25T09:36:43.694Z,1.80
2023-01-25T09:39:14.502Z,1.60
2023-01-25T09:41:50.961Z,1.60
2023-01-25T09:44:42.116Z,1.70
2023-01-25T09:47:37.957Z,1.80
2023-01-25T09:50:24.345Z,1.90
2023-01-25T09:53:11.045Z,1.90
2023-01-25T09:55:39.320Z,1.90
2023-01-25T09:58:17.825Z,2.00
2023-01-25T10:00:50.321Z,2.10
2023-01-25T10:03:27.503Z,2.00
2023-01-25T10:05:59.987Z,2.10
2023-01-25T10:08:31.704Z,2.10
2023-01-25T10:11:15.008Z,2.20
2023-01-25T10:13:44.091Z,2.50
2023-01-25T10:16:25.985Z,2.10
2023-01-25T10:19:31.245Z,3.10
2023-01-25T10:22:15.300Z,2.30
2023-01-25T10:25:06.241Z,2.20
2023-01-25T10:27:59.693Z,2.30
2023-01-25T10:30:35.635Z,2.40
2023-01-25T10:33:11.825Z,2.50
2023-01-25T10:35:46.784Z,2.40
2023-01-25T10:38:28.388Z,3.20
2023-01-25T10:41:10.480Z,2.60
2023-01-25T10:43:38.906Z,2.60
2023-01-25T10:46:35.946Z,2.70
2023-01-25T10:49:20.701Z,2.60
2023-01-25T10:51:47.979Z,2.80
2023-01-25T10:54:16.547Z,2.80
2023-01-25T10:56:45.386Z,2.70
2023-01-25T10:59:27.022Z,2.80
2023-01-25T11:01:54.439Z,3.50
2023-01-25T11:04:31.633Z,3.00
2023-01-25T11:07:00.048Z,3.10
2023-01-25T11:09:38.965Z,3.20
2023-01-25T11:12:16.995Z,3.20
2023-01-25T11:14:44.689Z,3.30
2023-01-25T11:17:27.606Z,3.40
2023-01-25T11:20:19.521Z,3.40
2023-01-25T11:22:53.017Z,3.60
2023-01-25T11:25:32.585Z,3.60
2023-01-25T11:28:16.013Z,3.70
2023-01-25T11:30:44.001Z,3.60
2023-01-25T11:33:13.076Z,4.60
2023-01-25T11:36:04.694Z,3.70
2023-01-25T11:38:32.555Z,3.90
2023-01-25T11:41:20.992Z,4.00
2023-01-25T11:43:57.582Z,4.00
2023-01-25T11:46:50.060Z,4.50
2023-01-25T11:49:44.460Z,4.30
2023-01-25T11:52:28.939Z,4.40
2023-01-25T11:55:06.835Z,4.30
2023-01-25T11:57:43.365Z,4.50
2023-01-25T12:00:16.792Z,4.60
2023-01-25T12:03:18.458Z,4.50
2023-01-25T12:06:03.684Z,4.60
2023-01-25T12:08:42.502Z,4.60
2023-01-25T12:11:42.081Z,4.60
2023-01-25T12:14:25.664Z,4.70
2023-01-25T12:17:24.062Z,5.10
2023-01-25T12:19:57.341Z,5.00
2023-01-25T12:22:49.007Z,4.90
2023-01-25T12:25:41.147Z,5.10
2023-01-25T12:28:31.312Z,5.10
2023-01-25T12:31:10.966Z,5.30
2023-01-25T12:33:53.843Z,5.40
2023-01-25T12:36:43.116Z,5.40
2023-01-25T12:39:20.675Z,5.70
2023-01-25T12:41:51.921Z,5.30
2023-01-25T12:44:21.187Z,5.20
2023-01-25T12:47:20.711Z,5.30
2023-01-25T12:49:50.807Z,5.30
2023-01-25T12:52:24.022Z,5.20
2023-01-25T12:54:55.262Z,5.60
2023-01-25T12:57:29.953Z,5.20
2023-01-25T13:00:23.587Z,5.30
2023-01-25T13:03:01.532Z,5.20
2023-01-25T13:05:40.176Z,5.30
2023-01-25T13:08:30.079Z,5.20
2023-01-25T13:11:13.972Z,5.20
2023-01-25T13:13:41.399Z,5.20
2023-01-25T13:16:30.679Z,5.00
2023-01-25T13:18:59.003Z,5.10
2023-01-25T13:21:45.078Z,4.90
2023-01-25T13:24:24.426Z,4.90
2023-01-25T13:26:54.522Z,4.80
2023-01-25T13:29:38.195Z,4.90
2023-01-25T13:32:24.756Z,4.60
2023-01-25T13:34:55.062Z,4.60
2023-01-25T13:37:26.385Z,4.80
2023-01-25T13:40:10.309Z,4.50
2023-01-25T13:42:39.548Z,4.40
2023-01-25T13:45:18.582Z,4.40
2023-01-25T13:48:19.758Z,4.40
2023-01-25T13:50:47.156Z,4.50
2023-01-25T13:53:14.511Z,4.40
2023-01-25T13:55:51.028Z,4.40
2023-01-25T13:58:44.835Z,4.60
2023-01-25T14:01:18.814Z,4.40
2023-01-25T14:03:49.180Z,4.30
2023-01-25T14:06:19.741Z,4.40
2023-01-25T14:08:48.894Z,4.20
2023-01-25T14:11:21.648Z,4.30
2023-01-25T14:14:03.931Z,4.40
2023-01-25T14:16:32.391Z,4.40
2023-01-25T14:19:22.620Z,4.30
2023-01-25T14:21:50.565Z,4.40
2023-01-25T14:24:19.339Z,4.40
2023-01-25T14:26:47.601Z,4.50
2023-01-25T14:29:36.456Z,4.50
2023-01-25T14:32:04.361Z,4.50
2023-01-25T14:34:31.733Z,4.50
2023-01-25T14:37:13.716Z,4.30
2023-01-25T14:39:41.064Z,4.40
2023-01-25T14:42:08.574Z,4.40
2023-01-25T14:44:36.307Z,4.40
2023-01-25T14:47:26.724Z,4.40
2023-01-25T14:49:54.008Z,4.40
2023-01-25T14:52:27.321Z,4.40
2023-01-25T14:54:56.287Z,4.20
2023-01-25T14:57:38.946Z,4.20
2023-01-25T15:00:45.148Z,4.40
2023-01-25T15:03:16.771Z,4.60
2023-01-25T15:05:48.350Z,4.60
2023-01-25T15:08:28.298Z,4.70
2023-01-25T15:10:57.653Z,4.60
2023-01-25T15:13:28.557Z,4.50
2023-01-25T15:16:01.075Z,4.50
2023-01-25T15:18:43.466Z,4.70
2023-01-25T15:21:13.602Z,4.70
2023-01-25T15:23:43.185Z,4.60
2023-01-25T15:26:24.963Z,4.50
2023-01-25T15:28:55.371Z,4.60
2023-01-25T15:31:29.194Z,4.70
2023-01-25T15:33:57.804Z,4.70
2023-01-25T15:36:25.527Z,4.70
2023-01-25T15:38:52.852Z,4.70
2023-01-25T15:41:20.694Z,4.60
2023-01-25T15:43:49.064Z,4.80
2023-01-25T15:46:28.499Z,4.80
2023-01-25T15:51:23.711Z,4.80
2023-01-25T15:56:20.934Z,4.90
2023-01-25T15:58:52.052Z,4.90
2023-01-25T16:01:19.874Z,4.90
2023-01-25T16:03:47.210Z,4.90
2023-01-25T16:06:37.515Z,4.80
2023-01-25T16:09:17.361Z,4.90
2023-01-25T16:11:45.835Z,4.90
2023-01-25T16:14:13.272Z,4.90
2023-01-25T16:16:47.371Z,5.00
2023-01-25T16:19:16.687Z,4.80
2023-01-25T16:21:44.375Z,4.70
2023-01-25T16:24:12.270Z,4.80
2023-01-25T16:26:50.467Z,4.70
2023-01-25T16:31:45.707Z,4.70
2023-01-25T16:34:13.225Z,4.70
2023-01-25T16:36:40.702Z,4.60
2023-01-25T16:39:25.440Z,4.30
2023-01-25T16:41:53.654Z,4.60
2023-01-25T16:44:21.026Z,4.70
2023-01-25T16:46:50.056Z,4.70
2023-01-25T16:49:22.172Z,4.30
2023-01-25T16:51:50.501Z,4.40
2023-01-25T16:54:19.969Z,4.30
2023-01-25T16:56:48.544Z,4.80
2023-01-25T16:59:16.750Z,4.40
2023-01-25T17:01:44.867Z,4.40
2023-01-25T17:04:12.940Z,4.50
2023-01-25T17:06:46.397Z,4.50
2023-01-25T17:09:23.408Z,4.40
2023-01-25T17:11:53.217Z,4.50
2023-01-25T17:14:21.753Z,4.40
2023-01-25T17:16:51.609Z,4.50
2023-01-25T17:19:20.301Z,4.50
2023-01-25T17:21:47.915Z,4.40
2023-01-25T17:24:18.809Z,4.40
2023-01-25T17:26:46.421Z,4.40
2023-01-25T17:29:14.001Z,4.50
2023-01-25T17:31:44.019Z,4.50
2023-01-25T17:34:16.240Z,4.50
2023-01-25T17:36:44.927Z,4.40
2023-01-25T17:39:15.357Z,4.30
2023-01-25T17:41:48.203Z,4.60
2023-01-25T17:44:22.679Z,4.30
2023-01-25T17:46:50.408Z,4.50
2023-01-25T17:49:18.449Z,4.50
2023-01-25T17:51:45.842Z,4.50
2023-01-25T17:54:13.380Z,4.50
2023-01-25T17:59:09.451Z,4.60
2023-01-25T18:01:37.256Z,4.40
2023-01-25T18:04:08.578Z,4.60
2023-01-25T18:06:36.749Z,4.60
2023-01-25T18:09:08.427Z,4.60
2023-01-25T18:11:37.483Z,4.60
2023-01-25T18:14:09.604Z,4.60
2023-01-25T18:16:39.108Z,4.60
2023-01-25T18:19:07.643Z,4.70
2023-01-25T18:21:35.655Z,4.60
2023-01-25T18:24:31.459Z,4.50
2023-01-25T18:27:07.896Z,4.70
2023-01-25T18:29:59.194Z,5.60
2023-01-25T18:32:27.031Z,4.70
2023-01-25T18:34:54.418Z,4.70
2023-01-25T18:37:23.303Z,4.70
2023-01-25T18:39:52.876Z,4.70
2023-01-25T18:42:21.885Z,5.00
2023-01-25T18:44:49.292Z,4.70
2023-01-25T18:47:18.893Z,4.80
2023-01-25T18:49:51.687Z,4.70
2023-01-25T18:52:21.160Z,5.10
2023-01-25T18:54:48.855Z,4.80
2023-01-25T18:57:16.641Z,4.80
2023-01-25T18:59:44.411Z,4.80
2023-01-25T19:02:16.465Z,4.80
2023-01-25T19:04:44.261Z,4.80
2023-01-25T19:07:12.187Z,4.80
2023-01-25T19:09:39.603Z,5.10
2023-01-25T19:12:07.176Z,4.90
2023-01-25T19:14:34.443Z,4.90
2023-01-25T19:17:01.868Z,4.90
2023-01-25T19:19:32.155Z,4.90
2023-01-25T19:22:00.587Z,4.90
2023-01-25T19:24:28.121Z,4.90
2023-01-25T19:26:55.789Z,4.90
2023-01-25T19:29:23.134Z,4.90
2023-01-25T19:31:50.611Z,5.30
2023-01-25T19:34:18.077Z,4.70
2023-01-25T19:36:49.983Z,4.90
2023-01-25T19:39:17.672Z,5.00
2023-01-25T19:41:45.497Z,4.90
2023-01-25T19:44:14.301Z,4.90
2023-01-25T19:46:41.725Z,4.80
2023-01-25T19:49:13.152Z,4.90
2023-01-25T19:51:44.220Z,4.90
2023-01-25T19:54:17.169Z,4.70
2023-01-25T19:56:46.884Z,4.90
2023-01-25T19:59:17.281Z,4.90
2023-01-25T20:01:46.342Z,4.90
2023-01-25T20:04:21.858Z,5.60
2023-01-25T20:06:50.255Z,4.90
2023-01-25T20:09:19.703Z,5.00
2023-01-25T20:11:47.497Z,4.90
2023-01-25T20:14:15.487Z,5.20
2023-01-25T20:16:43.176Z,5.20
2023-01-25T20:19:13.224Z,5.40
2023-01-25T20:21:40.567Z,5.70
2023-01-25T20:24:10.168Z,5.20
2023-01-25T20:26:39.879Z,5.40
2023-01-25T20:29:08.128Z,5.20
2023-01-25T20:31:54.163Z,5.10
2023-01-25T20:34:23.242Z,5.40
2023-01-25T20:36:51.512Z,5.40
2023-01-25T20:39:21.140Z,5.40
2023-01-25T20:41:51.800Z,5.40
2023-01-25T20:44:19.791Z,6.10
2023-01-25T20:46:47.142Z,5.50
2023-01-25T20:49:16.657Z,5.50
2023-01-25T20:51:44.768Z,5.60
2023-01-25T20:54:12.210Z,5.50
2023-01-25T20:56:39.763Z,5.70
2023-01-25T20:59:07.241Z,5.60
2023-01-25T21:01:36.859Z,5.60
2023-01-25T21:04:06.494Z,6.40
2023-01-25T21:06:35.602Z,5.70
2023-01-25T21:09:04.403Z,5.40
2023-01-25T21:11:32.419Z,5.60
2023-01-25T21:13:59.816Z,5.70
2023-01-25T21:16:27.612Z,5.80
2023-01-25T21:19:00.231Z,5.80
2023-01-25T21:21:29.608Z,5.70
2023-01-25T21:23:59.934Z,5.80
2023-01-25T21:26:32.529Z,5.80
2023-01-25T21:29:01.722Z,5.90
2023-01-25T21:31:32.777Z,5.90
2023-01-25T21:34:01.685Z,5.90
2023-01-25T21:36:29.352Z,6.10
2023-01-25T21:38:56.771Z,5.80
2023-01-25T21:41:29.851Z,6.40
2023-01-25T21:44:17.852Z,5.90
2023-01-25T21:47:04.214Z,5.90
2023-01-25T21:50:11.820Z,6.10
2023-01-25T21:52:39.344Z,5.90
2023-01-25T21:55:07.277Z,5.90
2023-01-25T21:57:35.519Z,5.90
2023-01-25T22:00:04.353Z,6.80
2023-01-25T22:02:32.136Z,6.00
2023-01-25T22:04:59.489Z,5.90
2023-01-25T22:07:26.788Z,6.10
2023-01-25T22:09:54.044Z,6.00
2023-01-25T22:12:21.355Z,6.10
2023-01-25T22:17:16.286Z,6.30
2023-01-25T22:19:43.627Z,6.30
2023-01-25T22:22:11.195Z,6.30
2023-01-25T22:24:38.533Z,6.40
2023-01-25T22:27:08.629Z,6.40
2023-01-25T22:29:36.021Z,6.40
2023-01-25T22:32:04.121Z,6.20
2023-01-25T22:34:31.518Z,6.40
2023-01-25T22:36:58.914Z,6.40
2023-01-25T22:39:26.215Z,6.20
2023-01-25T22:41:53.522Z,6.60
2023-01-25T22:46:50.555Z,6.40
2023-01-25T22:49:17.966Z,6.40
2023-01-25T22:51:45.309Z,6.50
2023-01-25T22:54:12.609Z,6.20
2023-01-25T22:56:40.252Z,6.40
2023-01-25T22:59:10.036Z,6.30
2023-01-25T23:01:37.669Z,6.70
2023-01-25T23:04:05.081Z,6.50
2023-01-25T23:06:34.326Z,6.40
2023-01-25T23:09:04.649Z,6.30
2023-01-25T23:11:37.933Z,6.40
2023-01-25T23:14:25.756Z,6.90
2023-01-25T23:16:53.046Z,6.30
2023-01-25T23:19:20.243Z,6.00
2023-01-25T23:21:47.579Z,6.20
2023-01-25T23:24:14.844Z,6.00
2023-01-25T23:26:46.225Z,5.90
2023-01-25T23:29:14.489Z,6.00
2023-01-25T23:31:42.203Z,5.90
2023-01-25T23:34:11.598Z,5.90
2023-01-25T23:36:39.625Z,5.90
2023-01-25T23:39:07.047Z,5.90
2023-01-25T23:41:34.371Z,5.80
2023-01-25T23:44:01.930Z,5.70
2023-01-25T23:46:29.406Z,5.70
2023-01-25T23:48:56.915Z,5.70
2023-01-25T23:51:24.240Z,5.60
2023-01-25T23:53:53.484Z,5.60
2023-01-25T23:56:22.430Z,5.60
2023-01-25T23:58:50.205Z,5.60
